createdAt,value
2016-04-22T00:00:59.038Z,968.36
2016-04-22T00:01:59.041Z,968.35
2016-04-22T00:02:59.044Z,968.36
2016-04-22T00:03:59.056Z,968.36
2016-04-22T00:04:59.042Z,968.35
2016-04-22T00:05:59.045Z,968.35
2016-04-22T00:06:59.048Z,968.38
2016-04-22T00:07:59.051Z,968.34
2016-04-22T00:08:59.038Z,968.35
2016-04-22T00:09:59.041Z,968.34
2016-04-22T00:10:59.044Z,968.33
2016-04-22T00:11:59.046Z,968.37
2016-04-22T00:12:59.049Z,968.33
2016-04-22T00:13:59.052Z,968.35
2016-04-22T00:14:59.039Z,968.35
2016-04-22T00:15:59.041Z,968.35
2016-04-22T00:16:59.044Z,968.34
2016-04-22T00:17:59.046Z,968.34
2016-04-22T00:18:59.050Z,968.32
2016-04-22T00:19:59.052Z,968.32
2016-04-22T00:20:59.055Z,968.34
2016-04-22T00:21:59.041Z,968.29
2016-04-22T00:22:59.044Z,968.29
2016-04-22T00:23:59.047Z,968.29
2016-04-22T00:24:59.050Z,968.29
2016-04-22T00:25:59.052Z,968.28
2016-04-22T00:26:59.055Z,968.29
2016-04-22T00:27:59.043Z,968.28
2016-04-22T00:28:59.045Z,968.28
2016-04-22T00:29:59.048Z,968.29
2016-04-22T00:30:59.051Z,968.28
2016-04-22T00:31:59.054Z,968.3
2016-04-22T00:32:59.056Z,968.28
2016-04-22T00:33:59.043Z,968.27
2016-04-22T00:34:59.045Z,968.27
2016-04-22T00:35:59.049Z,968.27
2016-04-22T00:36:59.052Z,968.25
2016-04-22T00:37:59.055Z,968.19
2016-04-22T00:38:59.058Z,968.21
2016-04-22T00:39:59.060Z,968.26
2016-04-22T00:40:59.047Z,968.23
2016-04-22T00:41:59.050Z,968.27
2016-04-22T00:42:59.052Z,968.22
2016-04-22T00:43:59.070Z,968.25
2016-04-22T00:44:59.058Z,968.24
2016-04-22T00:45:59.060Z,968.24
2016-04-22T00:46:59.063Z,968.25
2016-04-22T00:47:59.050Z,968.26
2016-04-22T00:48:59.053Z,968.26
2016-04-22T00:49:59.055Z,968.23
2016-04-22T00:50:59.059Z,968.25
2016-04-22T00:51:59.061Z,968.25
2016-04-22T00:52:59.064Z,968.24
2016-04-22T00:53:59.051Z,968.27
2016-04-22T00:54:59.054Z,968.26
2016-04-22T00:55:59.056Z,968.26
2016-04-22T00:56:59.058Z,968.26
2016-04-22T00:57:59.061Z,968.2
2016-04-22T00:58:59.064Z,968.23
2016-04-22T00:59:59.067Z,968.21
2016-04-22T01:00:59.053Z,968.21
2016-04-22T01:01:59.056Z,968.24
2016-04-22T01:02:59.074Z,968.2
2016-04-22T01:03:59.061Z,968.23
2016-04-22T01:04:59.064Z,968.24
2016-04-22T01:05:59.052Z,968.22
2016-04-22T01:06:59.054Z,968.21
2016-04-22T01:07:59.057Z,968.17
2016-04-22T01:08:59.060Z,968.23
2016-04-22T01:09:59.062Z,968.18
2016-04-22T01:10:59.065Z,968.19
2016-04-22T01:11:59.068Z,968.21
2016-04-22T01:12:59.055Z,968.19
2016-04-22T01:13:59.057Z,968.19
2016-04-22T01:14:59.060Z,968.23
2016-04-22T01:15:59.063Z,968.2
2016-04-22T01:16:59.065Z,968.19
2016-04-22T01:17:59.068Z,968.19
2016-04-22T01:18:59.071Z,968.21
2016-04-22T01:19:59.058Z,968.16
2016-04-22T01:20:59.061Z,968.18
2016-04-22T01:21:59.064Z,968.14
2016-04-22T01:22:59.067Z,968.16
2016-04-22T01:23:59.069Z,968.14
2016-04-22T01:24:59.072Z,968.16
2016-04-22T01:25:59.075Z,968.17
2016-04-22T01:26:59.061Z,968.17
2016-04-22T01:27:59.064Z,968.13
2016-04-22T01:28:59.067Z,968.1
2016-04-22T01:29:59.069Z,968.13
2016-04-22T01:30:59.072Z,968.08
2016-04-22T01:31:59.059Z,968.09
2016-04-22T01:32:59.061Z,968.05
2016-04-22T01:33:59.064Z,968.06
2016-04-22T01:34:59.067Z,968.1
2016-04-22T01:35:59.086Z,968.06
2016-04-22T01:36:59.072Z,968.04
2016-04-22T01:37:59.075Z,968.07
2016-04-22T01:38:59.078Z,968.06
2016-04-22T01:39:59.065Z,968.09
2016-04-22T01:40:59.068Z,968.07
2016-04-22T01:41:59.071Z,968.04
2016-04-22T01:42:59.074Z,968.06
2016-04-22T01:43:59.076Z,968.07
2016-04-22T01:44:59.063Z,968.04
2016-04-22T01:45:59.065Z,968.04
2016-04-22T01:46:59.084Z,968.02
2016-04-22T01:47:59.071Z,968.02
2016-04-22T01:48:59.074Z,968
2016-04-22T01:49:59.076Z,968.01
2016-04-22T01:50:59.063Z,968.01
2016-04-22T01:51:59.066Z,967.98
2016-04-22T01:52:59.068Z,967.98
2016-04-22T01:53:59.071Z,967.98
2016-04-22T01:54:59.074Z,967.99
2016-04-22T01:55:59.077Z,968.02
2016-04-22T01:56:59.079Z,968.01
2016-04-22T01:57:59.067Z,967.99
2016-04-22T01:58:59.069Z,967.98
2016-04-22T01:59:59.072Z,967.96
2016-04-22T02:00:59.075Z,967.94
2016-04-22T02:01:59.078Z,967.93
2016-04-22T02:02:59.080Z,967.93
2016-04-22T02:03:59.067Z,967.93
2016-04-22T02:04:59.070Z,967.95
2016-04-22T02:05:59.072Z,967.93
2016-04-22T02:06:59.075Z,967.94
2016-04-22T02:07:59.078Z,967.99
2016-04-22T02:08:59.081Z,967.99
2016-04-22T02:09:59.083Z,967.98
2016-04-22T02:10:59.071Z,968
2016-04-22T02:11:59.074Z,967.99
2016-04-22T02:12:59.091Z,967.98
2016-04-22T02:13:59.079Z,968
2016-04-22T02:14:59.082Z,968.03
2016-04-22T02:15:59.068Z,968.01
2016-04-22T02:16:59.071Z,967.98
2016-04-22T02:17:59.074Z,967.96
2016-04-22T02:18:59.076Z,967.98
2016-04-22T02:19:59.079Z,968.01
2016-04-22T02:20:59.066Z,967.95
2016-04-22T02:21:59.069Z,968.02
2016-04-22T02:22:59.071Z,967.99
2016-04-22T02:23:59.074Z,967.98
2016-04-22T02:24:59.076Z,967.96
2016-04-22T02:25:59.079Z,967.95
2016-04-22T02:26:59.082Z,967.95
2016-04-22T02:27:59.085Z,967.97
2016-04-22T02:28:59.072Z,968
2016-04-22T02:29:59.075Z,967.96
2016-04-22T02:30:59.078Z,967.96
2016-04-22T02:31:59.080Z,967.98
2016-04-22T02:32:59.083Z,967.97
2016-04-22T02:33:59.069Z,967.99
2016-04-22T02:34:59.072Z,967.99
2016-04-22T02:35:59.075Z,967.93
2016-04-22T02:36:59.078Z,967.97
2016-04-22T02:37:59.080Z,967.92
2016-04-22T02:38:59.083Z,967.96
2016-04-22T02:39:59.070Z,967.89
2016-04-22T02:40:59.072Z,967.87
2016-04-22T02:41:59.075Z,967.88
2016-04-22T02:42:59.078Z,967.91
2016-04-22T02:43:59.081Z,967.88
2016-04-22T02:44:59.083Z,967.91
2016-04-22T02:45:59.071Z,967.93
2016-04-22T02:46:59.088Z,967.91
2016-04-22T02:47:59.076Z,967.93
2016-04-22T02:48:59.079Z,967.89
2016-04-22T02:49:59.081Z,967.9
2016-04-22T02:50:59.084Z,967.89
2016-04-22T02:51:59.087Z,967.91
2016-04-22T02:52:59.074Z,967.9
2016-04-22T02:53:59.092Z,967.92
2016-04-22T02:54:59.079Z,967.9
2016-04-22T02:55:59.081Z,967.89
2016-04-22T02:56:59.085Z,967.88
2016-04-22T02:57:59.088Z,967.89
2016-04-22T02:58:59.074Z,967.86
2016-04-22T02:59:59.078Z,967.86
2016-04-22T03:00:59.080Z,967.87
2016-04-22T03:01:59.083Z,967.87
2016-04-22T03:02:59.086Z,967.86
2016-04-22T03:03:59.072Z,967.83
2016-04-22T03:04:59.075Z,967.85
2016-04-22T03:05:59.077Z,967.84
2016-04-22T03:06:59.080Z,967.83
2016-04-22T03:07:59.083Z,967.82
2016-04-22T03:08:59.085Z,967.8
2016-04-22T03:09:59.072Z,967.78
2016-04-22T03:10:59.075Z,967.78
2016-04-22T03:11:59.078Z,967.8
2016-04-22T03:12:59.081Z,967.78
2016-04-22T03:13:59.083Z,967.78
2016-04-22T03:14:59.086Z,967.79
2016-04-22T03:15:59.074Z,967.76
2016-04-22T03:16:59.076Z,967.75
2016-04-22T03:17:59.079Z,967.75
2016-04-22T03:18:59.082Z,967.75
2016-04-22T03:19:59.084Z,967.73
2016-04-22T03:20:59.087Z,967.73
2016-04-22T03:21:59.074Z,967.67
2016-04-22T03:22:59.076Z,967.66
2016-04-22T03:23:59.079Z,967.65
2016-04-22T03:24:59.082Z,967.63
2016-04-22T03:25:59.085Z,967.69
2016-04-22T03:26:59.072Z,967.66
2016-04-22T03:27:59.090Z,967.7
2016-04-22T03:28:59.077Z,967.78
2016-04-22T03:29:59.079Z,967.78
2016-04-22T03:30:59.082Z,967.79
2016-04-22T03:31:59.070Z,967.78
2016-04-22T03:32:59.072Z,967.82
2016-04-22T03:33:59.075Z,967.76
2016-04-22T03:34:59.077Z,967.8
2016-04-22T03:35:59.080Z,967.78
2016-04-22T03:36:59.083Z,967.77
2016-04-22T03:37:59.085Z,967.77
2016-04-22T03:38:59.073Z,967.76
2016-04-22T03:39:59.075Z,967.79
2016-04-22T03:40:59.078Z,967.81
2016-04-22T03:41:59.081Z,967.8
2016-04-22T03:42:59.083Z,967.8
2016-04-22T03:43:59.071Z,967.77
2016-04-22T03:44:59.074Z,967.83
2016-04-22T03:45:59.076Z,967.81
2016-04-22T03:46:59.079Z,967.76
2016-04-22T03:47:59.082Z,967.8
2016-04-22T03:48:59.068Z,967.8
2016-04-22T03:49:59.071Z,967.8
2016-04-22T03:50:59.073Z,967.79
2016-04-22T03:51:59.076Z,967.79
2016-04-22T03:52:59.079Z,967.83
2016-04-22T03:53:59.082Z,967.82
2016-04-22T03:54:59.085Z,967.84
2016-04-22T03:55:59.072Z,967.85
2016-04-22T03:56:59.074Z,967.87
2016-04-22T03:57:59.077Z,967.86
2016-04-22T03:58:59.079Z,967.91
2016-04-22T03:59:59.082Z,967.9
2016-04-22T04:00:59.085Z,967.91
2016-04-22T04:01:59.072Z,967.89
2016-04-22T04:02:59.075Z,967.89
2016-04-22T04:03:59.077Z,967.9
2016-04-22T04:04:59.080Z,967.91
2016-04-22T04:05:59.083Z,967.87
2016-04-22T04:06:59.085Z,967.85
2016-04-22T04:07:59.073Z,967.86
2016-04-22T04:08:59.075Z,967.87
2016-04-22T04:09:59.078Z,967.82
2016-04-22T04:10:59.081Z,967.83
2016-04-22T04:11:59.083Z,967.78
2016-04-22T04:12:59.070Z,967.84
2016-04-22T04:13:59.072Z,967.84
2016-04-22T04:14:59.075Z,967.81
2016-04-22T04:15:59.078Z,967.79
2016-04-22T04:16:59.080Z,967.81
2016-04-22T04:17:59.068Z,967.84
2016-04-22T04:18:59.071Z,967.81
2016-04-22T04:19:59.073Z,967.8
2016-04-22T04:20:59.091Z,967.82
2016-04-22T04:21:59.079Z,967.84
2016-04-22T04:22:59.096Z,967.83
2016-04-22T04:23:59.137Z,967.79
2016-04-22T04:24:59.164Z,967.8
2016-04-22T04:25:59.205Z,967.79
2016-04-22T04:26:59.247Z,967.74
2016-04-22T04:27:59.294Z,967.73
2016-04-22T04:28:59.280Z,967.75
2016-04-22T04:29:59.313Z,967.76
2016-04-22T04:30:59.329Z,967.71
2016-04-22T04:31:59.331Z,967.8
2016-04-22T04:32:59.344Z,967.82
2016-04-22T04:33:59.352Z,967.8
2016-04-22T04:34:59.360Z,967.78
2016-04-22T04:35:59.351Z,967.76
2016-04-22T04:36:59.360Z,967.73
2016-04-22T04:37:59.365Z,967.78
2016-04-22T04:38:59.370Z,967.78
2016-04-22T04:39:59.375Z,967.72
2016-04-22T04:40:59.379Z,967.76
2016-04-22T04:41:59.368Z,967.75
2016-04-22T04:42:59.372Z,967.73
2016-04-22T04:43:59.375Z,967.73
2016-04-22T04:44:59.378Z,967.77
2016-04-22T04:45:59.381Z,967.77
2016-04-22T04:46:59.369Z,967.8
2016-04-22T04:47:59.372Z,967.81
2016-04-22T04:48:59.376Z,967.79
2016-04-22T04:49:59.379Z,967.77
2016-04-22T04:50:59.382Z,967.78
2016-04-22T04:51:59.385Z,967.8
2016-04-22T04:52:59.372Z,967.75
2016-04-22T04:53:59.375Z,967.76
2016-04-22T04:54:59.377Z,967.75
2016-04-22T04:55:59.380Z,967.75
2016-04-22T04:56:59.382Z,967.74
2016-04-22T04:57:59.369Z,967.71
2016-04-22T04:58:59.388Z,967.77
2016-04-22T04:59:59.374Z,967.73
2016-04-22T05:00:59.377Z,967.76
2016-04-22T05:01:59.380Z,967.77
2016-04-22T05:02:59.382Z,967.75
2016-04-22T05:03:59.385Z,967.77
2016-04-22T05:04:59.388Z,967.75
2016-04-22T05:05:59.376Z,967.72
2016-04-22T05:06:59.379Z,967.75
2016-04-22T05:07:59.381Z,967.72
2016-04-22T05:08:59.384Z,967.73
2016-04-22T05:09:59.387Z,967.74
2016-04-22T05:10:59.390Z,967.71
2016-04-22T05:11:59.377Z,967.77
2016-04-22T05:12:59.395Z,967.74
2016-04-22T05:13:59.382Z,967.76
2016-04-22T05:14:59.385Z,967.74
2016-04-22T05:15:59.388Z,967.77
2016-04-22T05:16:59.375Z,967.79
2016-04-22T05:17:59.378Z,967.78
2016-04-22T05:18:59.381Z,967.75
2016-04-22T05:19:59.384Z,967.75
2016-04-22T05:20:59.386Z,967.75
2016-04-22T05:21:59.389Z,967.79
2016-04-22T05:22:59.392Z,967.76
2016-04-22T05:23:59.394Z,967.77
2016-04-22T05:24:59.397Z,967.79
2016-04-22T05:25:59.383Z,967.8
2016-04-22T05:26:59.386Z,967.84
2016-04-22T05:27:59.389Z,967.82
2016-04-22T05:28:59.392Z,967.84
2016-04-22T05:29:59.394Z,967.86
2016-04-22T05:30:59.397Z,967.82
2016-04-22T05:31:59.400Z,967.89
2016-04-22T05:32:59.402Z,967.87
2016-04-22T05:33:59.405Z,967.88
2016-04-22T05:34:59.392Z,967.89
2016-04-22T05:35:59.394Z,967.85
2016-04-22T05:36:59.397Z,967.86
2016-04-22T05:37:59.400Z,967.81
2016-04-22T05:38:59.403Z,967.79
2016-04-22T05:39:59.406Z,967.81
2016-04-22T05:40:59.407Z,967.81
2016-04-22T05:41:59.396Z,967.83
2016-04-22T05:42:59.413Z,967.86
2016-04-22T05:43:59.416Z,967.83
2016-04-22T05:44:59.404Z,967.81
2016-04-22T05:45:59.421Z,967.81
2016-04-22T05:46:59.409Z,967.82
2016-04-22T05:47:59.412Z,967.82
2016-04-22T05:48:59.414Z,967.79
2016-04-22T05:49:59.417Z,967.81
2016-04-22T05:50:59.419Z,967.81
2016-04-22T05:51:59.422Z,967.76
2016-04-22T05:52:59.425Z,967.75
2016-04-22T05:53:59.427Z,967.79
2016-04-22T05:54:59.430Z,967.79
2016-04-22T05:55:59.433Z,967.77
2016-04-22T05:56:59.420Z,967.77
2016-04-22T05:57:59.422Z,967.77
2016-04-22T05:58:59.426Z,967.77
2016-04-22T05:59:59.428Z,967.83
2016-04-22T06:00:59.431Z,967.78
2016-04-22T06:01:59.433Z,967.8
2016-04-22T06:02:59.436Z,967.81
2016-04-22T06:03:59.439Z,967.83
2016-04-22T06:04:59.442Z,967.82
2016-04-22T06:05:59.444Z,967.82
2016-04-22T06:06:59.447Z,967.84
2016-04-22T06:07:59.450Z,967.86
2016-04-22T06:08:59.453Z,967.87
2016-04-22T06:09:59.454Z,967.87
2016-04-22T06:10:59.457Z,967.86
2016-04-22T06:11:59.444Z,967.89
2016-04-22T06:12:59.463Z,967.9
2016-04-22T06:13:59.449Z,967.9
2016-04-22T06:14:59.453Z,967.9
2016-04-22T06:15:59.470Z,967.92
2016-04-22T06:16:59.489Z,967.9
2016-04-22T06:17:59.476Z,967.88
2016-04-22T06:18:59.463Z,967.94
2016-04-22T06:19:59.465Z,967.91
2016-04-22T06:20:59.468Z,967.9
2016-04-22T06:21:59.471Z,967.91
2016-04-22T06:22:59.473Z,967.97
2016-04-22T06:23:59.476Z,967.94
2016-04-22T06:24:59.479Z,967.95
2016-04-22T06:25:59.482Z,967.93
2016-04-22T06:26:59.485Z,967.96
2016-04-22T06:27:59.487Z,967.97
2016-04-22T06:28:59.490Z,967.98
2016-04-22T06:29:59.492Z,967.94
2016-04-22T06:30:59.496Z,967.92
2016-04-22T06:31:59.498Z,967.92
2016-04-22T06:32:59.501Z,967.93
2016-04-22T06:33:59.504Z,967.95
2016-04-22T06:34:59.506Z,967.91
2016-04-22T06:35:59.509Z,967.93
2016-04-22T06:36:59.512Z,967.88
2016-04-22T06:37:59.514Z,967.92
2016-04-22T06:38:59.517Z,967.9
2016-04-22T06:39:59.519Z,967.89
2016-04-22T06:40:59.522Z,967.9
2016-04-22T06:41:59.510Z,967.9
2016-04-22T06:42:59.527Z,967.87
2016-04-22T06:43:59.530Z,967.89
2016-04-22T06:44:59.518Z,967.89
2016-04-22T06:45:59.536Z,967.87
2016-04-22T06:46:59.538Z,967.87
2016-04-22T06:47:59.541Z,967.85
2016-04-22T06:48:59.544Z,967.85
2016-04-22T06:49:59.547Z,967.81
2016-04-22T06:50:59.549Z,967.82
2016-04-22T06:51:59.552Z,967.8
2016-04-22T06:52:59.554Z,967.79
2016-04-22T06:53:59.558Z,967.79
2016-04-22T06:54:59.559Z,967.78
2016-04-22T06:55:59.562Z,967.78
2016-04-22T06:56:59.565Z,967.76
2016-04-22T06:57:59.568Z,967.75
2016-04-22T06:58:59.571Z,967.76
2016-04-22T06:59:59.574Z,967.76
2016-04-22T07:00:59.576Z,967.75
2016-04-22T07:01:59.578Z,967.72
2016-04-22T07:02:59.581Z,967.68
2016-04-22T07:03:59.584Z,967.73
2016-04-22T07:04:59.603Z,967.69
2016-04-22T07:05:59.589Z,967.68
2016-04-22T07:06:59.592Z,967.7
2016-04-22T07:07:59.611Z,967.67
2016-04-22T07:08:59.613Z,967.67
2016-04-22T07:09:59.616Z,967.68
2016-04-22T07:10:59.619Z,967.67
2016-04-22T07:11:59.622Z,967.68
2016-04-22T07:12:59.625Z,967.7
2016-04-22T07:13:59.627Z,967.69
2016-04-22T07:14:59.630Z,967.7
2016-04-22T07:15:59.632Z,967.67
2016-04-22T07:16:59.635Z,967.67
2016-04-22T07:17:59.654Z,967.66
2016-04-22T07:18:59.656Z,967.69
2016-04-22T07:19:59.659Z,967.7
2016-04-22T07:20:59.662Z,967.73
2016-04-22T07:21:59.664Z,967.72
2016-04-22T07:22:59.667Z,967.72
2016-04-22T07:23:59.685Z,967.7
2016-04-22T07:24:59.672Z,967.72
2016-04-22T07:25:59.675Z,967.73
2016-04-22T07:26:59.678Z,967.71
2016-04-22T07:27:59.680Z,967.69
2016-04-22T07:28:59.698Z,967.71
2016-04-22T07:29:59.701Z,967.65
2016-04-22T07:30:59.704Z,967.67
2016-04-22T07:31:59.707Z,967.7
2016-04-22T07:32:59.709Z,967.7
2016-04-22T07:33:59.711Z,967.71
2016-04-22T07:34:59.715Z,967.61
2016-04-22T07:35:59.733Z,967.63
2016-04-22T07:36:59.736Z,967.59
2016-04-22T07:37:59.739Z,967.61
2016-04-22T07:38:59.741Z,967.6
2016-04-22T07:40:01.385Z,967.6
2016-04-22T07:40:59.763Z,967.57
2016-04-22T07:41:59.749Z,967.6
2016-04-22T07:42:59.768Z,967.6
2016-04-22T07:43:59.771Z,967.62
2016-04-22T07:44:59.773Z,967.66
2016-04-22T07:45:59.776Z,967.61
2016-04-22T07:46:59.779Z,967.63
2016-04-22T07:47:59.781Z,967.64
2016-04-22T07:48:59.799Z,967.63
2016-04-22T07:49:59.818Z,967.61
2016-04-22T07:50:59.804Z,967.65
2016-04-22T07:51:59.823Z,967.62
2016-04-22T07:52:59.810Z,967.62
2016-04-22T07:53:59.828Z,967.61
2016-04-22T07:54:59.831Z,967.58
2016-04-22T07:55:59.834Z,967.6
2016-04-22T07:56:59.837Z,967.62
2016-04-22T07:57:59.855Z,967.58
2016-04-22T07:58:59.874Z,967.55
2016-04-22T07:59:59.860Z,967.56
2016-04-22T08:00:59.863Z,967.53
2016-04-22T08:01:59.865Z,967.54
2016-04-22T08:02:59.883Z,967.56
2016-04-22T08:03:59.887Z,967.57
2016-04-22T08:04:59.890Z,967.55
2016-04-22T08:05:59.891Z,967.58
2016-04-22T08:06:59.911Z,967.55
2016-04-22T08:07:59.913Z,967.52
2016-04-22T08:08:59.916Z,967.52
2016-04-22T08:09:59.934Z,967.51
2016-04-22T08:10:59.921Z,967.53
2016-04-22T08:11:59.939Z,967.5
2016-04-22T08:12:59.942Z,967.51
2016-04-22T08:13:59.960Z,967.46
2016-04-22T08:14:59.947Z,967.45
2016-04-22T08:15:59.966Z,967.48
2016-04-22T08:16:59.968Z,967.44
2016-04-22T08:17:59.971Z,967.44
2016-04-22T08:18:59.990Z,967.44
2016-04-22T08:19:59.993Z,967.45
2016-04-22T08:20:59.995Z,967.45
2016-04-22T08:21:59.998Z,967.46
2016-04-22T08:23:00.016Z,967.44
2016-04-22T08:24:00.018Z,967.41
2016-04-22T08:25:00.021Z,967.43
2016-04-22T08:26:00.024Z,967.43
2016-04-22T08:27:00.042Z,967.46
2016-04-22T08:28:00.045Z,967.42
2016-04-22T08:29:00.048Z,967.41
2016-04-22T08:30:00.050Z,967.42
2016-04-22T08:31:00.053Z,967.42
2016-04-22T08:32:00.071Z,967.41
2016-04-22T08:33:00.073Z,967.41
2016-04-22T08:34:00.092Z,967.38
2016-04-22T08:35:00.095Z,967.36
2016-04-22T08:36:00.113Z,967.37
2016-04-22T08:37:00.101Z,967.37
2016-04-22T08:38:00.103Z,967.33
2016-04-22T08:39:00.121Z,967.32
2016-04-22T08:40:00.124Z,967.36
2016-04-22T08:41:00.127Z,967.38
2016-04-22T08:42:00.130Z,967.35
2016-04-22T08:43:00.133Z,967.38
2016-04-22T08:44:00.150Z,967.34
2016-04-22T08:45:00.153Z,967.35
2016-04-22T08:46:00.156Z,967.37
2016-04-22T08:47:00.158Z,967.34
2016-04-22T08:48:00.161Z,967.38
2016-04-22T08:49:00.164Z,967.35
2016-04-22T08:50:00.182Z,967.34
2016-04-22T08:51:00.185Z,967.34
2016-04-22T08:52:00.187Z,967.3
2016-04-22T08:53:00.191Z,967.29
2016-04-22T08:54:00.193Z,967.32
2016-04-22T08:55:00.196Z,967.31
2016-04-22T08:56:00.215Z,967.33
2016-04-22T08:57:00.217Z,967.33
2016-04-22T08:58:00.219Z,967.28
2016-04-22T08:59:00.222Z,967.28
2016-04-22T09:00:00.241Z,967.25
2016-04-22T09:01:00.243Z,967.26
2016-04-22T09:02:00.246Z,967.26
2016-04-22T09:03:00.264Z,967.29
2016-04-22T09:04:00.251Z,967.31
2016-04-22T09:05:00.254Z,967.29
2016-04-22T09:06:00.256Z,967.28
2016-04-22T09:07:00.275Z,967.31
2016-04-22T09:08:00.278Z,967.29
2016-04-22T09:09:00.281Z,967.25
2016-04-22T09:10:00.283Z,967.23
2016-04-22T09:11:00.286Z,967.19
2016-04-22T09:12:00.288Z,967.22
2016-04-22T09:13:00.306Z,967.22
2016-04-22T09:14:00.308Z,967.21
2016-04-22T09:15:00.311Z,967.16
2016-04-22T09:16:00.315Z,967.13
2016-04-22T09:17:00.317Z,967.15
2016-04-22T09:18:00.320Z,967.14
2016-04-22T09:19:00.322Z,967.07
2016-04-22T09:20:00.341Z,967.06
2016-04-22T09:21:00.344Z,967.01
2016-04-22T09:22:00.346Z,967.07
2016-04-22T09:23:00.365Z,967.01
2016-04-22T09:24:00.359Z,967
2016-04-22T09:25:00.377Z,967.05
2016-04-22T09:26:00.364Z,967.06
2016-04-22T09:27:00.367Z,967.04
2016-04-22T09:28:00.369Z,967.01
2016-04-22T09:29:00.389Z,966.98
2016-04-22T09:30:00.391Z,966.98
2016-04-22T09:31:00.393Z,966.95
2016-04-22T09:32:00.397Z,966.93
2016-04-22T09:33:00.399Z,966.92
2016-04-22T09:34:00.401Z,966.9
2016-04-22T09:35:00.405Z,966.86
2016-04-22T09:36:00.423Z,966.89
2016-04-22T09:37:00.425Z,966.85
2016-04-22T09:38:00.429Z,966.87
2016-04-22T09:39:00.431Z,966.85
2016-04-22T09:40:00.434Z,966.87
2016-04-22T09:41:00.436Z,966.78
2016-04-22T09:42:00.439Z,966.8
2016-04-22T09:43:00.458Z,966.75
2016-04-22T09:44:00.444Z,966.75
2016-04-22T09:45:00.463Z,966.73
2016-04-22T09:46:00.466Z,966.75
2016-04-22T09:47:00.469Z,966.7
2016-04-22T09:48:00.472Z,966.7
2016-04-22T09:49:00.474Z,966.72
2016-04-22T09:50:00.477Z,966.68
2016-04-22T09:51:00.494Z,966.65
2016-04-22T09:52:00.497Z,966.72
2016-04-22T09:53:00.499Z,966.67
2016-04-22T09:54:00.502Z,966.64
2016-04-22T09:55:00.505Z,966.66
2016-04-22T09:56:00.508Z,966.63
2016-04-22T09:57:00.511Z,966.64
2016-04-22T09:58:00.513Z,966.61
2016-04-22T09:59:00.532Z,966.59
2016-04-22T10:00:00.550Z,966.59
2016-04-22T10:01:00.537Z,966.57
2016-04-22T10:02:00.540Z,966.58
2016-04-22T10:03:00.542Z,966.56
2016-04-22T10:04:00.546Z,966.53
2016-04-22T10:05:00.547Z,966.55
2016-04-22T10:06:00.551Z,966.52
2016-04-22T10:07:00.569Z,966.52
2016-04-22T10:13:33.102Z,966.47
2016-04-22T10:14:33.105Z,966.45
2016-04-22T10:15:33.108Z,966.43
2016-04-22T10:16:33.111Z,966.42
2016-04-22T10:17:33.113Z,966.44
2016-04-22T10:18:33.132Z,966.38
2016-04-22T10:19:33.135Z,966.36
2016-04-22T10:20:33.138Z,966.36
2016-04-22T10:21:33.140Z,966.4
2016-04-22T10:22:33.143Z,966.36
2016-04-22T10:23:33.145Z,966.35
2016-04-22T10:24:33.148Z,966.4
2016-04-22T10:25:33.167Z,966.37
2016-04-22T10:26:33.169Z,966.35
2016-04-22T10:27:33.172Z,966.4
2016-04-22T10:28:33.175Z,966.3
2016-04-22T10:29:33.178Z,966.31
2016-04-22T10:30:33.180Z,966.26
2016-04-22T10:31:33.183Z,966.29
2016-04-22T10:32:33.186Z,966.29
2016-04-22T10:33:33.189Z,966.28
2016-04-22T10:34:33.207Z,966.26
2016-04-22T10:35:33.194Z,966.23
2016-04-22T10:36:33.211Z,966.17
2016-04-22T10:37:33.214Z,966.15
2016-04-22T10:38:33.217Z,966.13
2016-04-22T10:39:33.220Z,966.14
2016-04-22T10:40:33.222Z,966.1
2016-04-22T10:41:33.225Z,966.1
2016-04-22T10:42:33.228Z,966.12
2016-04-22T10:43:33.231Z,966.11
2016-04-22T10:44:33.233Z,966.07
2016-04-22T10:45:33.252Z,966.06
2016-04-22T10:46:33.254Z,966.06
2016-04-22T10:47:33.257Z,966.06
2016-04-22T10:48:33.260Z,966.07
2016-04-22T10:49:33.262Z,966.05
2016-04-22T10:50:33.265Z,966.03
2016-04-22T10:51:33.267Z,966
2016-04-22T10:52:33.270Z,965.98
2016-04-22T10:53:33.273Z,965.95
2016-04-22T10:54:33.291Z,965.97
2016-04-22T10:55:33.293Z,965.93
2016-04-22T10:56:33.296Z,965.89
2016-04-22T10:57:33.299Z,965.91
2016-04-22T10:58:33.301Z,965.86
2016-04-22T10:59:33.304Z,965.91
2016-04-22T11:00:33.307Z,965.93
2016-04-22T11:01:33.310Z,965.92
2016-04-22T11:02:33.312Z,965.88
2016-04-22T11:03:33.315Z,965.93
2016-04-22T11:04:33.317Z,965.85
2016-04-22T11:05:33.321Z,965.87
2016-04-22T11:06:33.324Z,965.87
2016-04-22T11:07:33.326Z,965.84
2016-04-22T11:08:33.344Z,965.85
2016-04-22T11:09:33.347Z,965.83
2016-04-22T11:10:33.350Z,965.83
2016-04-22T11:11:33.352Z,965.83
2016-04-22T11:12:33.355Z,965.75
2016-04-22T11:13:33.358Z,965.79
2016-04-22T11:14:33.361Z,965.8
2016-04-22T11:15:33.363Z,965.79
2016-04-22T11:16:33.382Z,965.75
2016-04-22T11:17:33.368Z,965.75
2016-04-22T11:18:33.371Z,965.75
2016-04-22T11:19:33.390Z,965.74
2016-04-22T11:20:33.393Z,965.7
2016-04-22T11:21:33.395Z,965.73
2016-04-22T11:22:33.951Z,965.69
2016-04-22T11:23:33.407Z,965.65
2016-04-22T11:24:33.410Z,965.7
2016-04-22T11:25:33.397Z,965.72
2016-04-22T11:26:33.400Z,965.68
2016-04-22T11:27:33.403Z,965.67
2016-04-22T11:28:33.406Z,965.65
2016-04-22T11:29:33.423Z,965.7
2016-04-22T11:30:33.426Z,965.69
2016-04-22T11:31:33.414Z,965.65
2016-04-22T11:32:33.432Z,965.62
2016-04-22T11:33:33.434Z,965.69
2016-04-22T11:34:33.436Z,965.65
2016-04-22T11:35:33.440Z,965.59
2016-04-22T11:36:33.442Z,965.57
2016-04-22T11:37:33.442Z,965.61
2016-04-22T11:38:33.444Z,965.62
2016-04-22T11:39:33.447Z,965.59
2016-04-22T11:40:33.466Z,965.57
2016-04-22T11:41:33.469Z,965.59
2016-04-22T11:42:33.471Z,965.54
2016-04-22T11:43:33.474Z,965.52
2016-04-22T11:44:33.461Z,965.51
2016-04-22T11:45:33.480Z,965.47
2016-04-22T11:46:33.482Z,965.49
2016-04-22T11:47:33.484Z,965.49
2016-04-22T11:48:33.487Z,965.5
2016-04-22T11:49:33.490Z,965.48
2016-04-22T11:50:33.509Z,965.49
2016-04-22T11:51:33.511Z,965.5
2016-04-22T11:52:33.498Z,965.47
2016-04-22T11:53:33.517Z,965.45
2016-04-22T11:54:33.520Z,965.47
2016-04-22T11:55:33.522Z,965.41
2016-04-22T11:56:33.525Z,965.46
2016-04-22T11:57:33.527Z,965.38
2016-04-22T11:58:33.531Z,965.38
2016-04-22T11:59:33.533Z,965.35
2016-04-22T12:00:33.536Z,965.35
2016-04-22T12:01:33.539Z,965.34
2016-04-22T12:02:33.541Z,965.35
2016-04-22T12:03:33.544Z,965.33
2016-04-22T12:04:33.547Z,965.39
2016-04-22T12:05:33.549Z,965.37
2016-04-22T12:06:33.552Z,965.33
2016-04-22T12:07:33.555Z,965.36
2016-04-22T12:08:33.557Z,965.32
2016-04-22T12:09:33.560Z,965.29
2016-04-22T12:10:33.563Z,965.33
2016-04-22T12:11:33.580Z,965.28
2016-04-22T12:12:33.568Z,965.29
2016-04-22T12:13:33.585Z,965.27
2016-04-22T12:14:33.588Z,965.25
2016-04-22T12:15:33.591Z,965.24
2016-04-22T12:16:33.594Z,965.26
2016-04-22T12:17:33.597Z,965.21
2016-04-22T12:18:33.600Z,965.2
2016-04-22T12:19:34.057Z,965.18
2016-04-22T12:20:33.606Z,965.21
2016-04-22T12:21:33.625Z,965.23
2016-04-22T12:22:33.612Z,965.21
2016-04-22T12:23:33.615Z,965.16
2016-04-22T12:24:33.617Z,965.15
2016-04-22T12:25:33.620Z,965.12
2016-04-22T12:26:33.622Z,965.11
2016-04-22T12:27:33.625Z,965.1
2016-04-22T12:28:33.628Z,965.04
2016-04-22T12:29:33.647Z,965.06
2016-04-22T12:30:33.650Z,965
2016-04-22T12:31:33.636Z,964.98
2016-04-22T12:32:33.655Z,964.97
2016-04-22T12:33:33.657Z,964.96
2016-04-22T12:34:33.660Z,965
2016-04-22T12:35:33.663Z,964.94
2016-04-22T12:36:33.666Z,964.93
2016-04-22T12:37:33.669Z,964.98